sensor_id;sensor_type;location;lat;lon;timestamp;temperature;humidity
15574;DHT22;7888;46.748;8.102;2023-02-28T00:00:31;5.00;47.80
15574;DHT22;7888;46.748;8.102;2023-02-28T00:02:58;4.90;47.80
15574;DHT22;7888;46.748;8.102;2023-02-28T00:05:25;4.90;47.80
15574;DHT22;7888;46.748;8.102;2023-02-28T00:07:52;4.90;47.70
15574;DHT22;7888;46.748;8.102;2023-02-28T00:10:21;4.90;47.70
15574;DHT22;7888;46.748;8.102;2023-02-28T00:12:54;4.90;47.60
15574;DHT22;7888;46.748;8.102;2023-02-28T00:15:24;4.80;47.60
15574;DHT22;7888;46.748;8.102;2023-02-28T00:17:50;4.80;47.70
15574;DHT22;7888;46.748;8.102;2023-02-28T00:20:17;4.80;47.70
15574;DHT22;7888;46.748;8.102;2023-02-28T00:22:46;4.80;47.70
15574;DHT22;7888;46.748;8.102;2023-02-28T00:25:17;4.80;47.70
15574;DHT22;7888;46.748;8.102;2023-02-28T00:27:44;4.80;47.80
15574;DHT22;7888;46.748;8.102;2023-02-28T00:30:13;4.80;47.80
15574;DHT22;7888;46.748;8.102;2023-02-28T00:32:41;4.80;47.80
15574;DHT22;7888;46.748;8.102;2023-02-28T00:35:09;4.80;47.70
15574;DHT22;7888;46.748;8.102;2023-02-28T00:37:35;4.80;47.70
15574;DHT22;7888;46.748;8.102;2023-02-28T00:40:01;4.70;47.80
15574;DHT22;7888;46.748;8.102;2023-02-28T00:42:30;4.70;47.80
15574;DHT22;7888;46.748;8.102;2023-02-28T00:44:56;4.70;47.80
15574;DHT22;7888;46.748;8.102;2023-02-28T00:47:21;4.70;47.80
15574;DHT22;7888;46.748;8.102;2023-02-28T00:49:47;4.70;47.90
15574;DHT22;7888;46.748;8.102;2023-02-28T00:52:13;4.70;47.90
15574;DHT22;7888;46.748;8.102;2023-02-28T00:54:39;4.70;47.90
15574;DHT22;7888;46.748;8.102;2023-02-28T00:57:05;4.70;47.90
15574;DHT22;7888;46.748;8.102;2023-02-28T00:59:30;4.70;47.90
15574;DHT22;7888;46.748;8.102;2023-02-28T01:01:56;4.60;47.90
15574;DHT22;7888;46.748;8.102;2023-02-28T01:04:22;4.60;48.00
15574;DHT22;7888;46.748;8.102;2023-02-28T01:06:48;4.60;48.00
15574;DHT22;7888;46.748;8.102;2023-02-28T01:09:13;4.60;48.00
15574;DHT22;7888;46.748;8.102;2023-02-28T01:11:39;4.60;48.00
15574;DHT22;7888;46.748;8.102;2023-02-28T01:14:15;4.60;48.00
15574;DHT22;7888;46.748;8.102;2023-02-28T01:16:42;4.50;48.00
15574;DHT22;7888;46.748;8.102;2023-02-28T01:19:08;4.50;48.00
15574;DHT22;7888;46.748;8.102;2023-02-28T01:21:35;4.50;48.00
15574;DHT22;7888;46.748;8.102;2023-02-28T01:24:02;4.50;48.00
15574;DHT22;7888;46.748;8.102;2023-02-28T01:26:29;4.50;48.00
15574;DHT22;7888;46.748;8.102;2023-02-28T01:28:55;4.50;48.00
15574;DHT22;7888;46.748;8.102;2023-02-28T01:31:22;4.50;48.00
15574;DHT22;7888;46.748;8.102;2023-02-28T01:33:49;4.50;48.00
15574;DHT22;7888;46.748;8.102;2023-02-28T01:36:18;4.50;48.10
15574;DHT22;7888;46.748;8.102;2023-02-28T01:38:49;4.40;48.00
15574;DHT22;7888;46.748;8.102;2023-02-28T01:41:20;4.40;48.00
15574;DHT22;7888;46.748;8.102;2023-02-28T01:46:22;4.40;48.00
15574;DHT22;7888;46.748;8.102;2023-02-28T01:48:54;4.40;48.10
15574;DHT22;7888;46.748;8.102;2023-02-28T01:51:46;4.40;48.20
15574;DHT22;7888;46.748;8.102;2023-02-28T01:54:22;4.40;48.30
15574;DHT22;7888;46.748;8.102;2023-02-28T01:57:01;4.40;48.20
15574;DHT22;7888;46.748;8.102;2023-02-28T02:00:17;4.40;48.30
15574;DHT22;7888;46.748;8.102;2023-02-28T02:02:26;4.40;48.20
15574;DHT22;7888;46.748;8.102;2023-02-28T02:05:07;4.50;48.30
15574;DHT22;7888;46.748;8.102;2023-02-28T02:07:37;4.50;48.40
15574;DHT22;7888;46.748;8.102;2023-02-28T02:10:20;4.50;48.30
15574;DHT22;7888;46.748;8.102;2023-02-28T02:15:54;4.50;48.30
15574;DHT22;7888;46.748;8.102;2023-02-28T02:36:45;4.50;48.30
15574;DHT22;7888;46.748;8.102;2023-02-28T02:39:31;4.50;48.30
15574;DHT22;7888;46.748;8.102;2023-02-28T02:42:59;4.50;48.40
15574;DHT22;7888;46.748;8.102;2023-02-28T02:45:40;4.50;48.50
15574;DHT22;7888;46.748;8.102;2023-02-28T02:48:15;4.50;48.40
15574;DHT22;7888;46.748;8.102;2023-02-28T02:50:49;4.50;48.40
15574;DHT22;7888;46.748;8.102;2023-02-28T02:53:23;4.50;48.50
15574;DHT22;7888;46.748;8.102;2023-02-28T02:55:54;4.50;48.50
15574;DHT22;7888;46.748;8.102;2023-02-28T02:58:27;4.40;48.40
15574;DHT22;7888;46.748;8.102;2023-02-28T03:01:00;4.40;48.50
15574;DHT22;7888;46.748;8.102;2023-02-28T03:03:29;4.40;48.50
15574;DHT22;7888;46.748;8.102;2023-02-28T03:05:59;4.40;48.50
15574;DHT22;7888;46.748;8.102;2023-02-28T03:08:27;4.40;48.50
15574;DHT22;7888;46.748;8.102;2023-02-28T03:10:59;4.40;48.50
15574;DHT22;7888;46.748;8.102;2023-02-28T03:16:33;4.40;48.70
15574;DHT22;7888;46.748;8.102;2023-02-28T03:19:23;4.40;48.60
15574;DHT22;7888;46.748;8.102;2023-02-28T03:27:29;4.30;48.60
15574;DHT22;7888;46.748;8.102;2023-02-28T03:30:09;4.30;48.60
15574;DHT22;7888;46.748;8.102;2023-02-28T03:32:47;4.30;48.70
15574;DHT22;7888;46.748;8.102;2023-02-28T03:35:32;4.30;48.60
15574;DHT22;7888;46.748;8.102;2023-02-28T03:38:19;4.30;48.60
15574;DHT22;7888;46.748;8.102;2023-02-28T03:41:02;4.20;48.60
15574;DHT22;7888;46.748;8.102;2023-02-28T03:43:36;4.20;48.50
15574;DHT22;7888;46.748;8.102;2023-02-28T03:46:10;4.20;48.50
15574;DHT22;7888;46.748;8.102;2023-02-28T03:48:41;4.20;48.50
15574;DHT22;7888;46.748;8.102;2023-02-28T03:51:12;4.20;48.60
15574;DHT22;7888;46.748;8.102;2023-02-28T03:53:56;4.20;49.20
15574;DHT22;7888;46.748;8.102;2023-02-28T03:56:38;4.20;48.70
15574;DHT22;7888;46.748;8.102;2023-02-28T03:59:20;4.20;48.80
15574;DHT22;7888;46.748;8.102;2023-02-28T04:01:48;4.10;48.70
15574;DHT22;7888;46.748;8.102;2023-02-28T04:04:16;4.10;48.60
15574;DHT22;7888;46.748;8.102;2023-02-28T04:06:43;4.10;48.70
15574;DHT22;7888;46.748;8.102;2023-02-28T04:09:11;4.10;48.70
15574;DHT22;7888;46.748;8.102;2023-02-28T04:11:40;4.10;48.70
15574;DHT22;7888;46.748;8.102;2023-02-28T04:14:10;4.10;48.70
15574;DHT22;7888;46.748;8.102;2023-02-28T04:16:39;4.10;48.70
15574;DHT22;7888;46.748;8.102;2023-02-28T04:19:07;4.10;48.70
15574;DHT22;7888;46.748;8.102;2023-02-28T04:21:40;4.10;48.70
15574;DHT22;7888;46.748;8.102;2023-02-28T04:24:10;4.00;48.70
15574;DHT22;7888;46.748;8.102;2023-02-28T04:26:48;4.00;48.70
15574;DHT22;7888;46.748;8.102;2023-02-28T04:29:22;4.00;48.80
15574;DHT22;7888;46.748;8.102;2023-02-28T04:31:50;4.00;48.80
15574;DHT22;7888;46.748;8.102;2023-02-28T04:34:18;4.00;48.80
15574;DHT22;7888;46.748;8.102;2023-02-28T04:36:47;4.00;48.70
15574;DHT22;7888;46.748;8.102;2023-02-28T04:39:15;3.90;48.70
15574;DHT22;7888;46.748;8.102;2023-02-28T04:41:44;3.90;48.70
15574;DHT22;7888;46.748;8.102;2023-02-28T04:44:10;3.90;48.80
15574;DHT22;7888;46.748;8.102;2023-02-28T04:46:36;3.80;48.70
15574;DHT22;7888;46.748;8.102;2023-02-28T04:49:02;3.90;48.80
15574;DHT22;7888;46.748;8.102;2023-02-28T04:51:28;3.80;48.80
15574;DHT22;7888;46.748;8.102;2023-02-28T04:53:55;3.80;48.90
15574;DHT22;7888;46.748;8.102;2023-02-28T04:56:21;3.80;48.90
15574;DHT22;7888;46.748;8.102;2023-02-28T04:58:47;3.80;48.90
15574;DHT22;7888;46.748;8.102;2023-02-28T05:01:32;3.80;49.00
15574;DHT22;7888;46.748;8.102;2023-02-28T05:04:00;3.80;49.10
15574;DHT22;7888;46.748;8.102;2023-02-28T05:06:30;3.80;49.10
15574;DHT22;7888;46.748;8.102;2023-02-28T05:08:58;3.80;49.10
15574;DHT22;7888;46.748;8.102;2023-02-28T05:11:32;3.80;49.10
15574;DHT22;7888;46.748;8.102;2023-02-28T05:14:12;3.80;49.20
15574;DHT22;7888;46.748;8.102;2023-02-28T05:16:39;3.90;50.00
15574;DHT22;7888;46.748;8.102;2023-02-28T05:19:05;3.80;49.20
15574;DHT22;7888;46.748;8.102;2023-02-28T05:24:09;3.80;49.30
15574;DHT22;7888;46.748;8.102;2023-02-28T05:26:37;3.90;49.30
15574;DHT22;7888;46.748;8.102;2023-02-28T05:29:05;3.90;49.30
15574;DHT22;7888;46.748;8.102;2023-02-28T05:31:32;3.90;49.20
15574;DHT22;7888;46.748;8.102;2023-02-28T05:33:58;3.90;49.30
15574;DHT22;7888;46.748;8.102;2023-02-28T05:36:24;3.90;49.30
15574;DHT22;7888;46.748;8.102;2023-02-28T05:38:51;3.90;49.30
15574;DHT22;7888;46.748;8.102;2023-02-28T05:41:18;3.90;49.30
15574;DHT22;7888;46.748;8.102;2023-02-28T05:43:45;3.90;49.20
15574;DHT22;7888;46.748;8.102;2023-02-28T05:46:12;4.00;49.30
15574;DHT22;7888;46.748;8.102;2023-02-28T05:48:40;4.00;49.30
15574;DHT22;7888;46.748;8.102;2023-02-28T05:51:08;4.00;49.30
15574;DHT22;7888;46.748;8.102;2023-02-28T05:53:35;4.00;49.30
15574;DHT22;7888;46.748;8.102;2023-02-28T05:56:01;4.10;49.30
15574;DHT22;7888;46.748;8.102;2023-02-28T05:58:28;4.10;49.30
15574;DHT22;7888;46.748;8.102;2023-02-28T06:01:00;4.10;49.90
15574;DHT22;7888;46.748;8.102;2023-02-28T06:03:27;4.10;49.30
15574;DHT22;7888;46.748;8.102;2023-02-28T06:05:53;4.10;49.30
15574;DHT22;7888;46.748;8.102;2023-02-28T06:08:19;4.10;49.30
15574;DHT22;7888;46.748;8.102;2023-02-28T06:10:45;4.10;49.20
15574;DHT22;7888;46.748;8.102;2023-02-28T06:13:11;4.10;49.20
15574;DHT22;7888;46.748;8.102;2023-02-28T06:15:38;4.10;49.20
15574;DHT22;7888;46.748;8.102;2023-02-28T06:18:04;4.10;49.20
15574;DHT22;7888;46.748;8.102;2023-02-28T06:20:30;4.10;49.20
15574;DHT22;7888;46.748;8.102;2023-02-28T06:22:57;4.10;49.10
15574;DHT22;7888;46.748;8.102;2023-02-28T06:25:27;4.10;49.10
15574;DHT22;7888;46.748;8.102;2023-02-28T06:27:53;4.10;49.20
15574;DHT22;7888;46.748;8.102;2023-02-28T06:30:20;4.10;49.30
15574;DHT22;7888;46.748;8.102;2023-02-28T06:32:52;4.10;49.10
15574;DHT22;7888;46.748;8.102;2023-02-28T06:35:18;4.10;49.20
15574;DHT22;7888;46.748;8.102;2023-02-28T06:37:44;4.10;49.20
15574;DHT22;7888;46.748;8.102;2023-02-28T06:40:10;4.10;49.20
15574;DHT22;7888;46.748;8.102;2023-02-28T06:42:38;4.10;49.20
15574;DHT22;7888;46.748;8.102;2023-02-28T06:45:04;4.10;49.30
15574;DHT22;7888;46.748;8.102;2023-02-28T06:47:35;4.10;49.20
15574;DHT22;7888;46.748;8.102;2023-02-28T06:50:02;4.10;49.10
15574;DHT22;7888;46.748;8.102;2023-02-28T06:52:28;4.10;49.20
15574;DHT22;7888;46.748;8.102;2023-02-28T06:54:53;4.10;49.20
15574;DHT22;7888;46.748;8.102;2023-02-28T06:57:27;4.10;49.10
15574;DHT22;7888;46.748;8.102;2023-02-28T06:59:58;4.10;49.20
15574;DHT22;7888;46.748;8.102;2023-02-28T07:02:29;4.10;49.20
15574;DHT22;7888;46.748;8.102;2023-02-28T07:04:54;4.10;49.30
15574;DHT22;7888;46.748;8.102;2023-02-28T07:07:21;4.20;49.40
15574;DHT22;7888;46.748;8.102;2023-02-28T07:09:46;4.20;49.40
15574;DHT22;7888;46.748;8.102;2023-02-28T07:12:12;4.30;49.40
15574;DHT22;7888;46.748;8.102;2023-02-28T07:14:38;4.30;49.40
15574;DHT22;7888;46.748;8.102;2023-02-28T07:17:06;4.30;49.30
15574;DHT22;7888;46.748;8.102;2023-02-28T07:19:32;4.30;49.30
15574;DHT22;7888;46.748;8.102;2023-02-28T07:21:58;4.30;49.30
15574;DHT22;7888;46.748;8.102;2023-02-28T07:24:24;4.40;49.30
15574;DHT22;7888;46.748;8.102;2023-02-28T07:26:53;4.40;49.30
15574;DHT22;7888;46.748;8.102;2023-02-28T07:29:19;4.40;49.20
15574;DHT22;7888;46.748;8.102;2023-02-28T07:31:45;4.40;49.20
15574;DHT22;7888;46.748;8.102;2023-02-28T07:34:12;4.40;49.30
15574;DHT22;7888;46.748;8.102;2023-02-28T07:36:39;4.50;49.30
15574;DHT22;7888;46.748;8.102;2023-02-28T07:39:05;4.50;49.30
15574;DHT22;7888;46.748;8.102;2023-02-28T07:41:31;4.60;49.20
15574;DHT22;7888;46.748;8.102;2023-02-28T07:43:59;4.60;49.20
15574;DHT22;7888;46.748;8.102;2023-02-28T07:46:26;4.70;49.20
15574;DHT22;7888;46.748;8.102;2023-02-28T07:48:52;4.70;49.10
15574;DHT22;7888;46.748;8.102;2023-02-28T07:51:19;4.80;49.10
15574;DHT22;7888;46.748;8.102;2023-02-28T07:53:46;4.90;49.20
15574;DHT22;7888;46.748;8.102;2023-02-28T07:56:12;4.90;49.20
15574;DHT22;7888;46.748;8.102;2023-02-28T07:58:38;5.00;49.20
15574;DHT22;7888;46.748;8.102;2023-02-28T08:01:08;5.10;49.10
15574;DHT22;7888;46.748;8.102;2023-02-28T08:03:36;5.20;49.20
15574;DHT22;7888;46.748;8.102;2023-02-28T08:06:05;5.20;49.10
15574;DHT22;7888;46.748;8.102;2023-02-28T08:08:32;5.30;49.10
15574;DHT22;7888;46.748;8.102;2023-02-28T08:11:00;5.40;48.90
15574;DHT22;7888;46.748;8.102;2023-02-28T08:13:28;5.40;48.70
15574;DHT22;7888;46.748;8.102;2023-02-28T08:15:55;5.50;48.60
15574;DHT22;7888;46.748;8.102;2023-02-28T08:18:22;5.50;48.60
15574;DHT22;7888;46.748;8.102;2023-02-28T08:20:48;5.60;48.60
15574;DHT22;7888;46.748;8.102;2023-02-28T08:23:15;5.70;48.60
15574;DHT22;7888;46.748;8.102;2023-02-28T08:25:41;5.70;48.60
15574;DHT22;7888;46.748;8.102;2023-02-28T08:28:06;5.80;48.60
15574;DHT22;7888;46.748;8.102;2023-02-28T08:30:32;5.90;48.60
15574;DHT22;7888;46.748;8.102;2023-02-28T08:32:58;6.00;48.60
15574;DHT22;7888;46.748;8.102;2023-02-28T08:35:24;6.10;48.50
15574;DHT22;7888;46.748;8.102;2023-02-28T08:37:50;6.20;48.50
15574;DHT22;7888;46.748;8.102;2023-02-28T08:40:16;6.30;48.30
15574;DHT22;7888;46.748;8.102;2023-02-28T08:42:47;6.40;48.20
15574;DHT22;7888;46.748;8.102;2023-02-28T08:45:14;6.50;48.20
15574;DHT22;7888;46.748;8.102;2023-02-28T08:47:40;6.60;48.20
15574;DHT22;7888;46.748;8.102;2023-02-28T08:50:07;6.70;48.00
15574;DHT22;7888;46.748;8.102;2023-02-28T08:52:33;6.70;47.90
15574;DHT22;7888;46.748;8.102;2023-02-28T08:54:59;6.80;47.70
15574;DHT22;7888;46.748;8.102;2023-02-28T08:57:25;6.90;47.60
15574;DHT22;7888;46.748;8.102;2023-02-28T08:59:54;7.00;47.60
15574;DHT22;7888;46.748;8.102;2023-02-28T09:02:19;7.00;47.50
15574;DHT22;7888;46.748;8.102;2023-02-28T09:04:45;7.10;47.30
15574;DHT22;7888;46.748;8.102;2023-02-28T09:07:12;7.20;47.30
15574;DHT22;7888;46.748;8.102;2023-02-28T09:09:38;7.20;46.90
15574;DHT22;7888;46.748;8.102;2023-02-28T09:12:25;7.20;46.90
15574;DHT22;7888;46.748;8.102;2023-02-28T09:14:52;7.30;46.90
15574;DHT22;7888;46.748;8.102;2023-02-28T09:17:19;7.40;46.80
15574;DHT22;7888;46.748;8.102;2023-02-28T09:19:47;7.40;46.80
15574;DHT22;7888;46.748;8.102;2023-02-28T09:22:13;7.40;47.30
15574;DHT22;7888;46.748;8.102;2023-02-28T09:24:39;7.50;46.80
15574;DHT22;7888;46.748;8.102;2023-02-28T09:27:05;7.60;47.00
15574;DHT22;7888;46.748;8.102;2023-02-28T09:29:33;7.70;46.90
15574;DHT22;7888;46.748;8.102;2023-02-28T09:32:00;7.70;46.90
15574;DHT22;7888;46.748;8.102;2023-02-28T09:34:27;7.80;46.70
15574;DHT22;7888;46.748;8.102;2023-02-28T09:36:56;7.90;46.40
15574;DHT22;7888;46.748;8.102;2023-02-28T09:39:23;7.90;46.30
15574;DHT22;7888;46.748;8.102;2023-02-28T09:41:53;8.00;46.10
15574;DHT22;7888;46.748;8.102;2023-02-28T09:44:33;8.00;46.00
15574;DHT22;7888;46.748;8.102;2023-02-28T09:47:25;8.10;46.00
15574;DHT22;7888;46.748;8.102;2023-02-28T09:49:57;8.10;45.70
15574;DHT22;7888;46.748;8.102;2023-02-28T09:52:30;8.20;45.90
15574;DHT22;7888;46.748;8.102;2023-02-28T09:55:48;8.30;46.10
15574;DHT22;7888;46.748;8.102;2023-02-28T09:58:33;8.30;45.60
15574;DHT22;7888;46.748;8.102;2023-02-28T10:01:27;8.40;45.70
15574;DHT22;7888;46.748;8.102;2023-02-28T10:04:09;8.50;45.30
15574;DHT22;7888;46.748;8.102;2023-02-28T10:06:46;8.50;45.50
15574;DHT22;7888;46.748;8.102;2023-02-28T10:09:17;8.50;45.30
15574;DHT22;7888;46.748;8.102;2023-02-28T10:11:48;8.60;45.70
15574;DHT22;7888;46.748;8.102;2023-02-28T10:14:19;8.70;45.40
15574;DHT22;7888;46.748;8.102;2023-02-28T10:19:46;8.80;45.40
15574;DHT22;7888;46.748;8.102;2023-02-28T10:25:28;9.00;44.80
15574;DHT22;7888;46.748;8.102;2023-02-28T10:28:09;9.00;44.90
15574;DHT22;7888;46.748;8.102;2023-02-28T10:30:42;9.00;44.80
15574;DHT22;7888;46.748;8.102;2023-02-28T10:33:33;9.10;45.20
15574;DHT22;7888;46.748;8.102;2023-02-28T10:36:01;9.20;44.80
15574;DHT22;7888;46.748;8.102;2023-02-28T10:38:38;9.30;45.00
15574;DHT22;7888;46.748;8.102;2023-02-28T10:41:10;9.40;44.70
15574;DHT22;7888;46.748;8.102;2023-02-28T10:43:38;9.40;45.00
15574;DHT22;7888;46.748;8.102;2023-02-28T10:51:40;9.70;45.40
15574;DHT22;7888;46.748;8.102;2023-02-28T10:54:16;9.80;44.60
15574;DHT22;7888;46.748;8.102;2023-02-28T10:56:45;9.80;44.40
15574;DHT22;7888;46.748;8.102;2023-02-28T10:59:40;9.80;44.10
15574;DHT22;7888;46.748;8.102;2023-02-28T11:02:34;9.80;43.00
15574;DHT22;7888;46.748;8.102;2023-02-28T11:05:29;9.80;43.50
15574;DHT22;7888;46.748;8.102;2023-02-28T11:08:14;9.80;43.50
15574;DHT22;7888;46.748;8.102;2023-02-28T11:10:56;9.80;43.50
15574;DHT22;7888;46.748;8.102;2023-02-28T11:13:34;9.80;43.50
15574;DHT22;7888;46.748;8.102;2023-02-28T11:16:06;9.80;43.60
15574;DHT22;7888;46.748;8.102;2023-02-28T11:21:09;9.80;43.60
15574;DHT22;7888;46.748;8.102;2023-02-28T11:23:41;9.80;44.10
15574;DHT22;7888;46.748;8.102;2023-02-28T11:26:07;9.80;44.00
15574;DHT22;7888;46.748;8.102;2023-02-28T11:28:41;9.90;44.10
15574;DHT22;7888;46.748;8.102;2023-02-28T11:33:48;10.00;43.60
15574;DHT22;7888;46.748;8.102;2023-02-28T11:38:55;10.10;43.90
15574;DHT22;7888;46.748;8.102;2023-02-28T11:47:42;10.30;43.30
15574;DHT22;7888;46.748;8.102;2023-02-28T11:56:54;10.40;43.20
15574;DHT22;7888;46.748;8.102;2023-02-28T12:02:32;10.50;43.20
15574;DHT22;7888;46.748;8.102;2023-02-28T12:18:03;10.80;43.10
15574;DHT22;7888;46.748;8.102;2023-02-28T12:29:12;11.10;42.20
15574;DHT22;7888;46.748;8.102;2023-02-28T12:32:12;11.10;42.40
15574;DHT22;7888;46.748;8.102;2023-02-28T12:34:46;11.10;42.20
15574;DHT22;7888;46.748;8.102;2023-02-28T12:37:20;11.10;42.30
15574;DHT22;7888;46.748;8.102;2023-02-28T12:40:17;11.10;42.30
15574;DHT22;7888;46.748;8.102;2023-02-28T12:42:52;11.20;42.30
15574;DHT22;7888;46.748;8.102;2023-02-28T12:48:09;11.30;42.00
15574;DHT22;7888;46.748;8.102;2023-02-28T12:50:40;11.30;41.90
15574;DHT22;7888;46.748;8.102;2023-02-28T12:53:11;11.30;42.30
15574;DHT22;7888;46.748;8.102;2023-02-28T13:09:54;11.50;41.30
15574;DHT22;7888;46.748;8.102;2023-02-28T13:12:23;11.50;41.00
15574;DHT22;7888;46.748;8.102;2023-02-28T13:14:50;11.60;41.50
15574;DHT22;7888;46.748;8.102;2023-02-28T13:17:24;11.60;42.00
15574;DHT22;7888;46.748;8.102;2023-02-28T13:24:53;11.90;41.90
15574;DHT22;7888;46.748;8.102;2023-02-28T13:27:33;12.00;42.20
15574;DHT22;7888;46.748;8.102;2023-02-28T13:33:36;12.30;41.20
15574;DHT22;7888;46.748;8.102;2023-02-28T13:36:29;12.40;41.50
15574;DHT22;7888;46.748;8.102;2023-02-28T13:39:00;12.40;41.20
15574;DHT22;7888;46.748;8.102;2023-02-28T13:44:03;12.60;41.30
15574;DHT22;7888;46.748;8.102;2023-02-28T13:49:31;12.80;41.30
15574;DHT22;7888;46.748;8.102;2023-02-28T14:01:03;13.00;39.80
15574;DHT22;7888;46.748;8.102;2023-02-28T14:06:33;13.10;39.70
15574;DHT22;7888;46.748;8.102;2023-02-28T14:09:06;13.10;39.80
15574;DHT22;7888;46.748;8.102;2023-02-28T14:11:42;13.10;39.60
15574;DHT22;7888;46.748;8.102;2023-02-28T14:14:53;13.10;39.90
15574;DHT22;7888;46.748;8.102;2023-02-28T14:17:03;13.10;39.80
15574;DHT22;7888;46.748;8.102;2023-02-28T14:19:34;13.10;40.20
15574;DHT22;7888;46.748;8.102;2023-02-28T14:30:40;13.00;38.90
15574;DHT22;7888;46.748;8.102;2023-02-28T14:38:54;12.90;40.10
15574;DHT22;7888;46.748;8.102;2023-02-28T14:41:33;12.90;39.10
15574;DHT22;7888;46.748;8.102;2023-02-28T14:44:23;12.90;39.70
15574;DHT22;7888;46.748;8.102;2023-02-28T14:47:01;12.90;40.00
15574;DHT22;7888;46.748;8.102;2023-02-28T14:49:42;12.90;39.00
15574;DHT22;7888;46.748;8.102;2023-02-28T14:52:21;12.80;39.10
15574;DHT22;7888;46.748;8.102;2023-02-28T14:54:54;12.80;39.70
15574;DHT22;7888;46.748;8.102;2023-02-28T15:00:04;12.80;39.50
15574;DHT22;7888;46.748;8.102;2023-02-28T15:02:34;12.70;39.00
15574;DHT22;7888;46.748;8.102;2023-02-28T15:05:10;12.60;38.60
15574;DHT22;7888;46.748;8.102;2023-02-28T15:07:44;12.50;39.00
15574;DHT22;7888;46.748;8.102;2023-02-28T15:12:37;12.30;39.20
15574;DHT22;7888;46.748;8.102;2023-02-28T15:15:06;12.20;39.40
15574;DHT22;7888;46.748;8.102;2023-02-28T15:17:39;12.10;39.80
15574;DHT22;7888;46.748;8.102;2023-02-28T15:20:14;12.10;39.80
15574;DHT22;7888;46.748;8.102;2023-02-28T15:22:41;12.00;39.30
15574;DHT22;7888;46.748;8.102;2023-02-28T15:25:10;12.00;39.60
15574;DHT22;7888;46.748;8.102;2023-02-28T15:27:45;11.90;39.60
15574;DHT22;7888;46.748;8.102;2023-02-28T15:30:21;11.80;39.80
15574;DHT22;7888;46.748;8.102;2023-02-28T15:36:18;11.70;39.30
15574;DHT22;7888;46.748;8.102;2023-02-28T15:38:51;11.60;39.60
15574;DHT22;7888;46.748;8.102;2023-02-28T15:41:35;11.50;39.70
15574;DHT22;7888;46.748;8.102;2023-02-28T15:44:27;11.40;39.40
15574;DHT22;7888;46.748;8.102;2023-02-28T15:47:02;11.40;39.10
15574;DHT22;7888;46.748;8.102;2023-02-28T15:49:40;11.30;39.70
15574;DHT22;7888;46.748;8.102;2023-02-28T15:52:44;11.10;39.70
15574;DHT22;7888;46.748;8.102;2023-02-28T15:55:23;11.10;39.70
15574;DHT22;7888;46.748;8.102;2023-02-28T15:57:54;10.90;39.70
15574;DHT22;7888;46.748;8.102;2023-02-28T16:00:26;10.90;40.00
15574;DHT22;7888;46.748;8.102;2023-02-28T16:02:53;10.80;40.20
15574;DHT22;7888;46.748;8.102;2023-02-28T16:05:25;10.70;40.30
15574;DHT22;7888;46.748;8.102;2023-02-28T16:08:15;10.70;40.20
15574;DHT22;7888;46.748;8.102;2023-02-28T16:10:41;10.60;40.10
15574;DHT22;7888;46.748;8.102;2023-02-28T16:13:11;10.60;40.50
15574;DHT22;7888;46.748;8.102;2023-02-28T16:15:42;10.50;40.20
15574;DHT22;7888;46.748;8.102;2023-02-28T16:18:12;10.50;40.40
15574;DHT22;7888;46.748;8.102;2023-02-28T16:20:38;10.40;40.30
15574;DHT22;7888;46.748;8.102;2023-02-28T16:23:04;10.30;40.40
15574;DHT22;7888;46.748;8.102;2023-02-28T16:25:39;10.30;40.40
15574;DHT22;7888;46.748;8.102;2023-02-28T16:28:30;10.20;40.40
15574;DHT22;7888;46.748;8.102;2023-02-28T16:31:02;10.10;40.10
15574;DHT22;7888;46.748;8.102;2023-02-28T16:33:31;10.00;40.40
15574;DHT22;7888;46.748;8.102;2023-02-28T16:35:58;9.90;40.50
15574;DHT22;7888;46.748;8.102;2023-02-28T16:38:25;9.90;40.60
15574;DHT22;7888;46.748;8.102;2023-02-28T16:40:53;9.80;40.50
15574;DHT22;7888;46.748;8.102;2023-02-28T16:43:23;9.70;40.50
15574;DHT22;7888;46.748;8.102;2023-02-28T16:45:57;9.60;40.50
15574;DHT22;7888;46.748;8.102;2023-02-28T16:48:25;9.50;40.50
15574;DHT22;7888;46.748;8.102;2023-02-28T16:50:51;9.40;40.60
15574;DHT22;7888;46.748;8.102;2023-02-28T16:53:17;9.30;40.70
15574;DHT22;7888;46.748;8.102;2023-02-28T16:55:43;9.20;40.90
15574;DHT22;7888;46.748;8.102;2023-02-28T16:58:14;9.10;41.00
15574;DHT22;7888;46.748;8.102;2023-02-28T17:00:41;9.00;41.00
15574;DHT22;7888;46.748;8.102;2023-02-28T17:05:50;8.90;41.00
15574;DHT22;7888;46.748;8.102;2023-02-28T17:08:16;8.80;41.10
15574;DHT22;7888;46.748;8.102;2023-02-28T17:10:42;8.70;41.10
15574;DHT22;7888;46.748;8.102;2023-02-28T17:13:07;8.60;41.20
15574;DHT22;7888;46.748;8.102;2023-02-28T17:15:35;8.50;41.30
15574;DHT22;7888;46.748;8.102;2023-02-28T17:18:02;8.40;41.40
15574;DHT22;7888;46.748;8.102;2023-02-28T17:20:29;8.30;41.40
15574;DHT22;7888;46.748;8.102;2023-02-28T17:22:55;8.20;41.60
15574;DHT22;7888;46.748;8.102;2023-02-28T17:25:23;8.10;41.60
15574;DHT22;7888;46.748;8.102;2023-02-28T17:27:50;8.00;41.60
15574;DHT22;7888;46.748;8.102;2023-02-28T17:30:23;8.00;41.80
15574;DHT22;7888;46.748;8.102;2023-02-28T17:32:55;7.90;41.80
15574;DHT22;7888;46.748;8.102;2023-02-28T17:35:23;7.80;41.90
15574;DHT22;7888;46.748;8.102;2023-02-28T17:37:49;7.70;42.00
15574;DHT22;7888;46.748;8.102;2023-02-28T17:40:18;7.70;42.20
15574;DHT22;7888;46.748;8.102;2023-02-28T17:42:45;7.60;42.30
15574;DHT22;7888;46.748;8.102;2023-02-28T17:45:12;7.50;42.40
15574;DHT22;7888;46.748;8.102;2023-02-28T17:47:40;7.50;42.50
15574;DHT22;7888;46.748;8.102;2023-02-28T17:50:14;7.50;42.60
15574;DHT22;7888;46.748;8.102;2023-02-28T17:52:42;7.40;42.70
15574;DHT22;7888;46.748;8.102;2023-02-28T17:55:09;7.40;42.70
15574;DHT22;7888;46.748;8.102;2023-02-28T17:57:35;7.40;42.80
15574;DHT22;7888;46.748;8.102;2023-02-28T18:00:01;7.30;42.80
15574;DHT22;7888;46.748;8.102;2023-02-28T18:02:31;7.30;42.90
15574;DHT22;7888;46.748;8.102;2023-02-28T18:04:57;7.30;42.90
15574;DHT22;7888;46.748;8.102;2023-02-28T18:07:24;7.30;43.00
15574;DHT22;7888;46.748;8.102;2023-02-28T18:09:50;7.20;43.00
15574;DHT22;7888;46.748;8.102;2023-02-28T18:12:16;7.20;43.00
15574;DHT22;7888;46.748;8.102;2023-02-28T18:14:42;7.20;43.00
15574;DHT22;7888;46.748;8.102;2023-02-28T18:17:11;7.10;43.00
15574;DHT22;7888;46.748;8.102;2023-02-28T18:19:38;7.10;43.10
15574;DHT22;7888;46.748;8.102;2023-02-28T18:22:04;7.10;43.20
15574;DHT22;7888;46.748;8.102;2023-02-28T18:24:34;7.00;43.30
15574;DHT22;7888;46.748;8.102;2023-02-28T18:27:00;7.00;43.40
15574;DHT22;7888;46.748;8.102;2023-02-28T18:29:27;7.00;43.40
15574;DHT22;7888;46.748;8.102;2023-02-28T18:31:55;6.90;43.40
15574;DHT22;7888;46.748;8.102;2023-02-28T18:34:22;6.90;43.40
15574;DHT22;7888;46.748;8.102;2023-02-28T18:36:50;6.90;43.50
15574;DHT22;7888;46.748;8.102;2023-02-28T18:39:16;6.90;43.50
15574;DHT22;7888;46.748;8.102;2023-02-28T18:41:43;6.90;43.50
15574;DHT22;7888;46.748;8.102;2023-02-28T18:44:08;6.80;43.50
15574;DHT22;7888;46.748;8.102;2023-02-28T18:46:35;6.80;43.60
15574;DHT22;7888;46.748;8.102;2023-02-28T18:49:00;6.80;43.60
15574;DHT22;7888;46.748;8.102;2023-02-28T18:51:28;6.80;43.70
15574;DHT22;7888;46.748;8.102;2023-02-28T18:53:55;6.80;43.90
15574;DHT22;7888;46.748;8.102;2023-02-28T18:56:22;6.70;43.80
15574;DHT22;7888;46.748;8.102;2023-02-28T18:58:50;6.70;43.80
15574;DHT22;7888;46.748;8.102;2023-02-28T19:01:22;6.70;43.80
15574;DHT22;7888;46.748;8.102;2023-02-28T19:03:59;6.70;44.00